Time;durP1;ratioP1;P1;durP2;ratioP2;P2;SDS_P1;SDS_P2;PMS_P1;PMS_P2;Temp;Humidity;BMP_temperature;BMP_pressure;BME280_temperature;BME280_humidity;BME280_pressure;Samples;Min_cycle;Max_cycle;Signal;HPM_P1;HPM_P2
2022/11/02 00:02:08;;;;;;;;;;;12.60;99.90;;;;;;5018590;28;19932;-89
2022/11/02 00:04:33;;;;;;;;;;;12.10;99.90;;;;;;5023950;28;19924;-88
2022/11/02 00:06:59;;;;;;;;;;;12.20;99.90;;;;;;5022793;28;19994;-89
2022/11/02 00:09:25;;;;;;;;;;;12.20;99.90;;;;;;5021282;28;19925;-90
2022/11/02 00:11:50;;;;;;;;;;;11.90;99.90;;;;;;5022743;28;19933;-89
2022/11/02 00:14:16;;;;;;;;;;;11.90;99.90;;;;;;5014949;28;19960;-89
2022/11/02 00:16:41;;;;;;;;;;;12.40;99.90;;;;;;5022675;28;19925;-89
2022/11/02 00:19:10;;;;;;;;;;;12.00;99.90;;;;;;5038478;28;19925;-89
2022/11/02 00:21:36;;;;;;;;;;;11.80;99.90;;;;;;5020314;28;19925;-90
2022/11/02 00:24:03;;;;;;;;;;;11.80;99.90;;;;;;5040017;28;19913;-89
2022/11/02 00:26:31;;;;;;;;;;;11.80;99.90;;;;;;5045455;28;19954;-89
2022/11/02 00:29:09;;;;;;;;;;;11.60;99.90;;;;;;5038381;28;19925;-89
2022/11/02 00:31:35;;;;;;;;;;;11.80;99.90;;;;;;5006443;28;19925;-89
2022/11/02 00:34:03;;;;;;;;;;;11.40;99.90;;;;;;5013012;28;19987;-90
2022/11/02 00:36:32;;;;;;;;;;;11.40;99.90;;;;;;5037565;28;19928;-89
2022/11/02 00:38:58;;;;;;;;;;;11.40;99.90;;;;;;5020565;28;20372;-90
2022/11/02 00:41:23;;;;;;;;;;;11.40;99.90;;;;;;5022120;28;20015;-90
2022/11/02 00:43:49;;;;;;;;;;;11.20;99.90;;;;;;5019188;28;19924;-89
2022/11/02 00:46:15;;;;;;;;;;;11.00;99.90;;;;;;5029920;28;20015;-90
2022/11/02 00:48:41;;;;;;;;;;;11.20;99.90;;;;;;5020389;28;20428;-89
2022/11/02 00:51:06;;;;;;;;;;;11.20;99.90;;;;;;5021791;28;19924;-88
2022/11/02 00:53:32;;;;;;;;;;;11.00;99.90;;;;;;5020330;28;20436;-89
2022/11/02 00:55:58;;;;;;;;;;;11.40;99.90;;;;;;5038070;28;20284;-89
2022/11/02 00:58:23;;;;;;;;;;;10.90;99.90;;;;;;5013600;28;19932;-89
2022/11/02 01:00:52;;;;;;;;;;;11.00;99.90;;;;;;5021518;28;19970;-89
2022/11/02 01:03:18;;;;;;;;;;;11.10;99.90;;;;;;5020716;28;19929;-89
2022/11/02 01:05:43;;;;;;;;;;;10.80;99.90;;;;;;5017254;28;19925;-89
2022/11/02 01:08:12;;;;;;;;;;;10.90;99.90;;;;;;5029801;28;19925;-89
2022/11/02 01:10:38;;;;;;;;;;;10.90;99.90;;;;;;5019113;28;19971;-90
2022/11/02 01:13:06;;;;;;;;;;;10.80;99.90;;;;;;5024967;28;19925;-89
2022/11/02 01:15:31;;;;;;;;;;;10.90;99.90;;;;;;5007336;28;19931;-89
2022/11/02 01:18:00;;;;;;;;;;;10.80;99.90;;;;;;5022571;28;20356;-89
2022/11/02 01:20:25;;;;;;;;;;;10.70;99.90;;;;;;5023881;28;19939;-89
2022/11/02 01:22:51;;;;;;;;;;;10.90;99.90;;;;;;5022335;28;19924;-88
2022/11/02 01:25:19;;;;;;;;;;;10.60;99.90;;;;;;5017252;28;20297;-88
2022/11/02 01:27:51;;;;;;;;;;;10.70;99.90;;;;;;5020162;28;20285;-88
2022/11/02 01:30:20;;;;;;;;;;;8.60;99.90;;;;;;5020805;28;19925;-89
2022/11/02 01:32:45;;;;;;;;;;;10.40;99.90;;;;;;5021409;28;19932;-88
2022/11/02 01:35:15;;;;;;;;;;;10.80;99.90;;;;;;5013652;28;20301;-89
2022/11/02 01:37:43;;;;;;;;;;;11.80;99.90;;;;;;5021657;28;19925;-89
2022/11/02 01:40:12;;;;;;;;;;;10.00;99.90;;;;;;5036532;28;19925;-90
2022/11/02 01:42:38;;;;;;;;;;;11.90;99.90;;;;;;5021252;28;20019;-89
2022/11/02 01:45:04;;;;;;;;;;;10.20;99.90;;;;;;5024912;28;19971;-89
2022/11/02 01:47:37;;;;;;;;;;;10.00;99.90;;;;;;5032301;28;19924;-88
2022/11/02 01:50:14;;;;;;;;;;;10.30;99.90;;;;;;5037764;28;19919;-90
2022/11/02 01:52:40;;;;;;;;;;;10.20;99.90;;;;;;5061672;28;19913;-89
2022/11/02 01:55:18;;;;;;;;;;;10.00;99.90;;;;;;5025985;28;19978;-88
2022/11/02 01:57:45;;;;;;;;;;;8.30;99.90;;;;;;5036277;28;19925;-89
2022/11/02 02:00:17;;;;;;;;;;;10.20;99.90;;;;;;5031531;28;19925;-89
2022/11/02 02:03:17;;;;;;;;;;;10.20;99.90;;;;;;5045535;28;19946;-89
2022/11/02 02:05:52;;;;;;;;;;;8.40;99.90;;;;;;5041953;28;20034;-89
2022/11/02 02:08:18;;;;;;;;;;;10.30;99.90;;;;;;5019758;28;19929;-89
2022/11/02 02:10:50;;;;;;;;;;;10.20;99.90;;;;;;5017960;28;19998;-88
2022/11/02 02:13:42;;;;;;;;;;;9.30;99.90;;;;;;5016281;28;20002;-90
2022/11/02 02:16:16;;;;;;;;;;;9.60;99.90;;;;;;5020756;28;19925;-89
2022/11/02 02:19:05;;;;;;;;;;;11.60;99.90;;;;;;5035954;28;19957;-89
2022/11/02 02:21:46;;;;;;;;;;;10.20;99.90;;;;;;5028667;28;20377;-89
2022/11/02 02:24:23;;;;;;;;;;;10.30;99.90;;;;;;5019498;28;19969;-90
2022/11/02 02:27:00;;;;;;;;;;;10.40;99.90;;;;;;5019001;28;20364;-89
2022/11/02 02:29:36;;;;;;;;;;;10.40;99.90;;;;;;5030065;28;19924;-89
2022/11/02 02:32:10;;;;;;;;;;;10.30;99.90;;;;;;5019653;28;20392;-88
2022/11/02 02:34:50;;;;;;;;;;;10.40;99.90;;;;;;5036099;28;20384;-89
2022/11/02 02:37:28;;;;;;;;;;;10.60;99.90;;;;;;5019972;28;20007;-88
2022/11/02 02:40:06;;;;;;;;;;;10.40;99.90;;;;;;5016281;28;19925;-89
2022/11/02 02:42:51;;;;;;;;;;;10.40;99.90;;;;;;5036605;28;19955;-89
2022/11/02 02:45:32;;;;;;;;;;;8.70;99.90;;;;;;5018720;28;20355;-89
2022/11/02 02:48:05;;;;;;;;;;;8.40;99.90;;;;;;5025448;28;19925;-88
2022/11/02 02:50:36;;;;;;;;;;;10.40;99.90;;;;;;5017523;28;20326;-90
2022/11/02 02:53:06;;;;;;;;;;;10.40;99.90;;;;;;5012699;28;20369;-89
2022/11/02 02:55:35;;;;;;;;;;;8.60;99.90;;;;;;5018767;28;20011;-89
2022/11/02 02:58:08;;;;;;;;;;;10.40;99.90;;;;;;5019606;28;19931;-91
2022/11/02 03:00:35;;;;;;;;;;;10.50;99.90;;;;;;5018814;28;20412;-89
2022/11/02 03:03:02;;;;;;;;;;;10.80;99.90;;;;;;5018576;28;20430;-90
2022/11/02 03:05:29;;;;;;;;;;;8.80;99.90;;;;;;5008023;28;20385;-90
2022/11/02 03:08:15;;;;;;;;;;;10.60;99.90;;;;;;5053423;28;20015;-89
2022/11/02 03:10:50;;;;;;;;;;;10.40;99.90;;;;;;5032290;28;19924;-89
2022/11/02 03:13:35;;;;;;;;;;;10.50;99.90;;;;;;5019423;28;19925;-89
2022/11/02 03:16:24;;;;;;;;;;;10.50;99.90;;;;;;5015796;28;19954;-89
2022/11/02 03:18:49;;;;;;;;;;;10.50;99.90;;;;;;5015635;28;19971;-88
2022/11/02 03:21:25;;;;;;;;;;;8.50;99.90;;;;;;5035594;28;19924;-89
2022/11/02 03:23:53;;;;;;;;;;;9.20;99.90;;;;;;5015293;28;19925;-90
2022/11/02 03:26:35;;;;;;;;;;;10.20;99.90;;;;;;5014594;28;20324;-90
2022/11/02 03:29:07;;;;;;;;;;;9.30;99.90;;;;;;5013076;28;20003;-90
2022/11/02 03:31:45;;;;;;;;;;;10.10;99.90;;;;;;5013836;28;20012;-89
2022/11/02 03:34:10;;;;;;;;;;;9.70;99.90;;;;;;5035265;28;20011;-89
2022/11/02 03:36:45;;;;;;;;;;;10.30;99.90;;;;;;5019372;28;20011;-89
2022/11/02 03:39:14;;;;;;;;;;;10.20;99.90;;;;;;5011192;28;19948;-89
2022/11/02 03:41:41;;;;;;;;;;;10.10;99.90;;;;;;5019297;28;19926;-89
2022/11/02 03:44:10;;;;;;;;;;;10.10;99.90;;;;;;5018025;28;20369;-88
2022/11/02 03:46:37;;;;;;;;;;;10.40;99.90;;;;;;5029420;28;20015;-88
2022/11/02 03:49:04;;;;;;;;;;;9.90;99.90;;;;;;5014191;28;19925;-88
2022/11/02 03:51:31;;;;;;;;;;;9.00;99.90;;;;;;5019086;28;19925;-89
2022/11/02 03:54:04;;;;;;;;;;;10.00;99.90;;;;;;5015576;28;20263;-89
2022/11/02 03:56:47;;;;;;;;;;;10.20;99.90;;;;;;5018789;28;20388;-88
2022/11/02 03:59:15;;;;;;;;;;;9.80;99.90;;;;;;5009720;28;20239;-89
2022/11/02 04:01:46;;;;;;;;;;;9.80;99.90;;;;;;5000047;28;19984;-89
2022/11/02 04:04:14;;;;;;;;;;;10.00;99.90;;;;;;5018190;28;19974;-88
2022/11/02 04:06:40;;;;;;;;;;;9.70;99.90;;;;;;5018619;28;20495;-89
2022/11/02 04:09:06;;;;;;;;;;;10.00;99.90;;;;;;5018023;28;19924;-88
2022/11/02 04:19:47;;;;;;;;;;;9.90;99.90;;;;;;5034808;28;20352;-89
2022/11/02 04:25:23;;;;;;;;;;;10.20;99.90;;;;;;5041982;28;19925;-89
2022/11/02 04:27:52;;;;;;;;;;;9.90;99.90;;;;;;5018709;28;19929;-90
2022/11/02 04:30:21;;;;;;;;;;;10.00;99.90;;;;;;5017906;28;19925;-89
2022/11/02 04:35:36;;;;;;;;;;;9.70;99.90;;;;;;5031271;28;20408;-90
2022/11/02 04:40:56;;;;;;;;;;;;;;;;;;;;;
2022/11/02 04:43:22;;;;;;;;;;;10.20;99.90;;;;;;5052940;28;19920;-90
2022/11/02 04:45:48;;;;;;;;;;;10.20;99.90;;;;;;5041942;28;19924;-90
2022/11/02 04:48:31;;;;;;;;;;;10.10;99.90;;;;;;5040657;28;19913;-90
2022/11/02 04:51:02;;;;;;;;;;;10.40;99.90;;;;;;5015162;28;20254;-91
2022/11/02 04:53:35;;;;;;;;;;;10.40;99.90;;;;;;5004571;28;19936;-88
2022/11/02 04:56:19;;;;;;;;;;;10.10;99.90;;;;;;5019384;28;19925;-89
2022/11/02 04:58:50;;;;;;;;;;;10.00;99.90;;;;;;5022167;28;20350;-89
2022/11/02 05:01:16;;;;;;;;;;;8.30;99.90;;;;;;5005512;28;19925;-88
2022/11/02 05:03:49;;;;;;;;;;;11.00;99.90;;;;;;5018232;28;19925;-90
2022/11/02 05:06:18;;;;;;;;;;;8.90;99.90;;;;;;5016768;28;19980;-90
2022/11/02 05:08:47;;;;;;;;;;;10.40;99.90;;;;;;5009761;28;20008;-90
2022/11/02 05:11:21;;;;;;;;;;;10.50;99.90;;;;;;5022773;28;19980;-90
2022/11/02 05:13:56;;;;;;;;;;;8.00;99.90;;;;;;5022042;28;19924;-91
2022/11/02 05:16:45;;;;;;;;;;;10.40;99.90;;;;;;5028013;28;19971;-89
2022/11/02 05:19:19;;;;;;;;;;;10.10;99.90;;;;;;5042469;28;20024;-90
2022/11/02 05:21:53;;;;;;;;;;;10.10;99.90;;;;;;5005449;28;19925;-90
2022/11/02 05:24:18;;;;;;;;;;;9.00;99.90;;;;;;5024674;28;20040;-90
2022/11/02 05:26:48;;;;;;;;;;;10.30;99.90;;;;;;5007104;28;19983;-91
2022/11/02 05:29:21;;;;;;;;;;;10.00;99.90;;;;;;5021624;28;20292;-90
2022/11/02 05:31:49;;;;;;;;;;;10.30;99.90;;;;;;5021480;28;19933;-90
2022/11/02 05:34:38;;;;;;;;;;;10.20;99.90;;;;;;5010634;28;20312;-90
2022/11/02 05:37:06;;;;;;;;;;;9.80;99.90;;;;;;5036618;28;19925;-90
2022/11/02 05:39:32;;;;;;;;;;;9.90;99.90;;;;;;5008690;28;20292;-90
2022/11/02 05:42:03;;;;;;;;;;;9.70;99.90;;;;;;5021969;28;19925;-90
2022/11/02 05:44:39;;;;;;;;;;;;;;;;;;;;;
2022/11/02 05:47:07;;;;;;;;;;;9.70;99.90;;;;;;5029718;28;19964;-89
2022/11/02 05:49:35;;;;;;;;;;;10.20;99.90;;;;;;5019896;28;19932;-90
2022/11/02 05:52:09;;;;;;;;;;;9.90;99.90;;;;;;5016939;28;19929;-90
2022/11/02 05:54:34;;;;;;;;;;;9.90;99.90;;;;;;5000222;28;19925;-90
2022/11/02 05:57:00;;;;;;;;;;;10.30;99.90;;;;;;5020421;28;20019;-89
2022/11/02 05:59:29;;;;;;;;;;;10.00;99.90;;;;;;5015310;28;19928;-90
2022/11/02 06:01:59;;;;;;;;;;;10.20;99.90;;;;;;5019278;28;19925;-91
2022/11/02 06:04:31;;;;;;;;;;;9.80;99.90;;;;;;5016482;28;19936;-91
2022/11/02 06:06:59;;;;;;;;;;;10.30;99.90;;;;;;5036624;28;20246;-90
2022/11/02 06:09:25;;;;;;;;;;;9.90;99.90;;;;;;5055273;28;19909;-89
2022/11/02 06:11:54;;;;;;;;;;;10.50;99.90;;;;;;5038280;28;19923;-89
2022/11/02 06:14:52;;;;;;;;;;;9.80;99.90;;;;;;5044800;28;19984;-90
2022/11/02 06:17:17;;;;;;;;;;;11.30;99.90;;;;;;5072507;22;19951;-96
2022/11/02 06:19:43;;;;;;;;;;;9.80;99.90;;;;;;5086179;28;19935;-95
2022/11/02 06:22:09;;;;;;;;;;;9.80;99.90;;;;;;5052826;28;19999;-96
2022/11/02 06:24:34;;;;;;;;;;;9.80;99.90;;;;;;5069822;28;19996;-95
2022/11/02 06:27:00;;;;;;;;;;;9.90;99.90;;;;;;5062982;28;19924;-96
2022/11/02 06:29:25;;;;;;;;;;;9.90;99.90;;;;;;5074830;28;19912;-96
2022/11/02 06:31:51;;;;;;;;;;;9.90;99.90;;;;;;5068217;27;19927;-94
2022/11/02 06:36:47;;;;;;;;;;;10.00;99.90;;;;;;5046922;28;19925;-94
2022/11/02 06:39:13;;;;;;;;;;;10.00;99.90;;;;;;4992836;28;20015;-95
2022/11/02 06:41:39;;;;;;;;;;;10.00;99.90;;;;;;5010593;28;19932;-95
2022/11/02 06:44:04;;;;;;;;;;;10.10;99.90;;;;;;4992773;28;19932;-94
2022/11/02 06:46:30;;;;;;;;;;;10.00;99.90;;;;;;4994323;28;20070;-94
2022/11/02 06:48:56;;;;;;;;;;;10.00;99.90;;;;;;5008900;28;19988;-95
2022/11/02 06:51:21;;;;;;;;;;;10.10;99.90;;;;;;4990011;28;19932;-95
2022/11/02 06:53:47;;;;;;;;;;;10.10;99.90;;;;;;5010566;28;19925;-94
2022/11/02 06:56:12;;;;;;;;;;;10.00;99.90;;;;;;5009947;28;19949;-94
2022/11/02 06:58:43;;;;;;;;;;;10.00;99.90;;;;;;5020021;28;19925;-95
2022/11/02 07:01:14;;;;;;;;;;;10.10;99.90;;;;;;5021892;28;19930;-95
2022/11/02 07:03:39;;;;;;;;;;;10.10;99.90;;;;;;5026137;28;19921;-94
2022/11/02 07:06:05;;;;;;;;;;;10.10;99.90;;;;;;5030314;28;20404;-95
2022/11/02 07:08:34;;;;;;;;;;;10.00;99.90;;;;;;5010434;28;19921;-95
2022/11/02 07:11:03;;;;;;;;;;;10.10;99.90;;;;;;5030199;28;19952;-95
2022/11/02 07:14:04;;;;;;;;;;;10.10;99.90;;;;;;5038192;28;19964;-94
2022/11/02 07:16:30;;;;;;;;;;;10.10;99.90;;;;;;5022040;28;20766;-92
2022/11/02 07:18:56;;;;;;;;;;;10.10;99.90;;;;;;4998781;28;19936;-93
2022/11/02 07:21:22;;;;;;;;;;;10.20;99.90;;;;;;5010349;28;20482;-94
2022/11/02 07:23:47;;;;;;;;;;;10.30;99.90;;;;;;5013768;28;19965;-94
2022/11/02 07:26:13;;;;;;;;;;;10.30;99.90;;;;;;5027080;28;19931;-95
2022/11/02 07:28:38;;;;;;;;;;;10.30;99.90;;;;;;5037378;28;19972;-95
2022/11/02 07:31:04;;;;;;;;;;;10.20;99.90;;;;;;5019107;28;19925;-94
2022/11/02 07:33:30;;;;;;;;;;;10.20;99.90;;;;;;5001165;28;19929;-94
2022/11/02 07:35:55;;;;;;;;;;;10.20;99.90;;;;;;4998498;28;19926;-95
2022/11/02 07:38:24;;;;;;;;;;;10.10;99.90;;;;;;5012017;28;19961;-95
2022/11/02 07:40:49;;;;;;;;;;;9.90;99.90;;;;;;4992660;28;19948;-93
2022/11/02 07:43:24;;;;;;;;;;;10.20;99.90;;;;;;4983144;28;19926;-94
2022/11/02 07:45:50;;;;;;;;;;;10.20;99.90;;;;;;4989625;28;19962;-93
2022/11/02 07:48:15;;;;;;;;;;;10.10;99.90;;;;;;5008720;28;19925;-94
2022/11/02 07:50:41;;;;;;;;;;;10.00;99.90;;;;;;5016519;28;19926;-95
2022/11/02 07:53:08;;;;;;;;;;;10.00;99.90;;;;;;5044018;28;20266;-95
2022/11/02 07:55:34;;;;;;;;;;;10.10;99.90;;;;;;4995500;28;19910;-95
2022/11/02 07:57:59;;;;;;;;;;;10.10;99.90;;;;;;4996642;28;19925;-96
2022/11/02 08:00:26;;;;;;;;;;;10.10;99.90;;;;;;4990684;28;19926;-95
2022/11/02 08:02:58;;;;;;;;;;;10.10;99.90;;;;;;5006911;28;19925;-95
2022/11/02 08:05:24;;;;;;;;;;;10.10;99.90;;;;;;4986884;28;19929;-94
2022/11/02 08:08:00;;;;;;;;;;;10.10;99.90;;;;;;4997046;28;19933;-94
2022/11/02 08:10:26;;;;;;;;;;;10.20;99.90;;;;;;5017381;28;19972;-93
2022/11/02 08:12:53;;;;;;;;;;;10.30;99.90;;;;;;4992151;28;20285;-95
2022/11/02 08:15:18;;;;;;;;;;;10.50;99.90;;;;;;4994526;28;19937;-95
2022/11/02 08:17:44;;;;;;;;;;;10.30;99.90;;;;;;5004533;28;19929;-95
2022/11/02 08:20:10;;;;;;;;;;;10.60;99.90;;;;;;5008626;28;19935;-95
2022/11/02 08:22:36;;;;;;;;;;;10.40;99.90;;;;;;4993816;28;19929;-95
2022/11/02 08:25:02;;;;;;;;;;;10.50;99.90;;;;;;4988772;28;19954;-96
2022/11/02 08:27:29;;;;;;;;;;;10.50;99.90;;;;;;4997359;28;19925;-95
2022/11/02 08:29:54;;;;;;;;;;;10.60;99.90;;;;;;4997783;28;19929;-96
2022/11/02 08:32:20;;;;;;;;;;;10.50;99.90;;;;;;5008483;28;19933;-95
2022/11/02 08:34:46;;;;;;;;;;;10.80;99.90;;;;;;5007484;28;19920;-95
2022/11/02 08:37:12;;;;;;;;;;;11.20;99.90;;;;;;5041517;28;19932;-95
2022/11/02 08:39:38;;;;;;;;;;;10.30;99.90;;;;;;5014383;28;19936;-94
2022/11/02 08:42:03;;;;;;;;;;;10.60;99.90;;;;;;5016959;28;19971;-95
2022/11/02 08:44:29;;;;;;;;;;;9.30;99.90;;;;;;5024011;28;19925;-95
2022/11/02 08:46:55;;;;;;;;;;;10.60;99.90;;;;;;5009030;28;19956;-96
2022/11/02 08:49:21;;;;;;;;;;;10.50;99.90;;;;;;5011892;28;19929;-96
2022/11/02 08:51:47;;;;;;;;;;;10.50;99.90;;;;;;5029841;28;19925;-94
2022/11/02 08:54:13;;;;;;;;;;;10.70;99.90;;;;;;5013403;28;19932;-94
2022/11/02 08:56:39;;;;;;;;;;;10.60;99.90;;;;;;4990903;28;20362;-95
2022/11/02 08:59:06;;;;;;;;;;;10.50;99.90;;;;;;5019175;28;19948;-94
2022/11/02 09:01:34;;;;;;;;;;;9.70;99.90;;;;;;5013341;28;19925;-96
2022/11/02 09:04:00;;;;;;;;;;;11.10;99.90;;;;;;5053331;22;19925;-91
2022/11/02 09:06:26;;;;;;;;;;;10.80;99.90;;;;;;5020912;28;19932;-91
2022/11/02 09:08:51;;;;;;;;;;;10.90;99.90;;;;;;5011761;28;20361;-92
2022/11/02 09:11:17;;;;;;;;;;;10.90;99.90;;;;;;5037796;28;20357;-91
2022/11/02 09:13:42;;;;;;;;;;;11.00;99.90;;;;;;5035242;28;20006;-90
2022/11/02 09:16:08;;;;;;;;;;;11.00;99.90;;;;;;5024105;28;19948;-90
2022/11/02 09:18:33;;;;;;;;;;;11.00;99.90;;;;;;5027008;28;19925;-90
2022/11/02 09:21:03;;;;;;;;;;;11.00;99.90;;;;;;5044413;28;19925;-91
2022/11/02 09:23:29;;;;;;;;;;;11.10;99.90;;;;;;5014569;28;19925;-90
2022/11/02 09:25:54;;;;;;;;;;;11.10;99.90;;;;;;5035076;28;19976;-91
2022/11/02 09:28:20;;;;;;;;;;;11.10;99.90;;;;;;5009529;28;19959;-91
2022/11/02 09:30:46;;;;;;;;;;;11.20;99.90;;;;;;5024543;28;19925;-92
2022/11/02 09:33:12;;;;;;;;;;;11.20;99.90;;;;;;5038201;28;19925;-91
2022/11/02 09:35:39;;;;;;;;;;;11.30;99.90;;;;;;5024124;28;19957;-91
2022/11/02 09:38:04;;;;;;;;;;;11.40;99.90;;;;;;5032488;28;19926;-90
2022/11/02 09:40:35;;;;;;;;;;;11.50;99.90;;;;;;5041226;28;19935;-92
2022/11/02 09:43:07;;;;;;;;;;;11.50;99.90;;;;;;5027093;28;19925;-92
2022/11/02 09:45:34;;;;;;;;;;;11.50;99.90;;;;;;5029866;28;20179;-93
2022/11/02 09:48:06;;;;;;;;;;;11.70;99.90;;;;;;5040872;28;19932;-92
2022/11/02 09:50:40;;;;;;;;;;;11.70;99.90;;;;;;5011499;28;19936;-92
2022/11/02 09:53:08;;;;;;;;;;;11.80;99.90;;;;;;5023282;28;19925;-91
2022/11/02 09:55:35;;;;;;;;;;;11.90;99.90;;;;;;5041833;28;19925;-91
2022/11/02 09:58:05;;;;;;;;;;;12.00;99.90;;;;;;5009374;28;19925;-92
2022/11/02 10:00:32;;;;;;;;;;;12.30;99.90;;;;;;5037177;28;19925;-91
2022/11/02 10:02:58;;;;;;;;;;;12.50;99.90;;;;;;5039737;28;19921;-91
2022/11/02 10:05:35;;;;;;;;;;;12.50;99.90;;;;;;5061332;28;19964;-91
2022/11/02 10:08:18;;;;;;;;;;;12.50;99.90;;;;;;5016538;28;19931;-93
2022/11/02 10:10:47;;;;;;;;;;;12.50;99.90;;;;;;5028539;28;20004;-93
2022/11/02 10:13:19;;;;;;;;;;;12.50;99.90;;;;;;5028497;28;19929;-92
2022/11/02 10:15:46;;;;;;;;;;;12.50;99.90;;;;;;5046819;28;19924;-92
2022/11/02 10:18:15;;;;;;;;;;;12.50;99.90;;;;;;5025887;28;19929;-91
2022/11/02 10:20:44;;;;;;;;;;;12.60;99.90;;;;;;5030394;28;19979;-92
2022/11/02 10:23:14;;;;;;;;;;;12.70;99.90;;;;;;5005748;28;19952;-91
2022/11/02 10:25:40;;;;;;;;;;;12.70;99.90;;;;;;5033618;28;20079;-92
2022/11/02 10:28:13;;;;;;;;;;;12.70;99.90;;;;;;5025050;28;19925;-90
2022/11/02 10:30:39;;;;;;;;;;;12.70;99.90;;;;;;5025624;28;19925;-92
2022/11/02 10:33:10;;;;;;;;;;;12.60;99.90;;;;;;5008370;28;19925;-92
2022/11/02 10:35:50;;;;;;;;;;;12.70;99.90;;;;;;5025820;28;19925;-89
2022/11/02 10:38:37;;;;;;;;;;;12.70;99.90;;;;;;5007349;28;19971;-91
2022/11/02 10:41:21;;;;;;;;;;;12.80;99.90;;;;;;5008698;28;19929;-92
2022/11/02 10:44:09;;;;;;;;;;;11.30;99.90;;;;;;5067423;28;19971;-91
2022/11/02 10:46:47;;;;;;;;;;;12.90;99.90;;;;;;5020362;28;19964;-92
2022/11/02 10:49:18;;;;;;;;;;;12.90;99.90;;;;;;5021382;28;20020;-95
2022/11/02 10:51:43;;;;;;;;;;;12.80;99.90;;;;;;5029981;28;19964;-92
2022/11/02 10:54:13;;;;;;;;;;;12.80;99.90;;;;;;5042266;28;19929;-90
2022/11/02 10:56:39;;;;;;;;;;;12.70;99.90;;;;;;5025480;28;20348;-91
2022/11/02 10:59:13;;;;;;;;;;;12.60;99.90;;;;;;5024571;28;19933;-92
2022/11/02 11:02:00;;;;;;;;;;;12.60;99.90;;;;;;5038339;28;19971;-92
2022/11/02 11:04:30;;;;;;;;;;;12.70;99.90;;;;;;5008342;28;19925;-91
2022/11/02 11:06:57;;;;;;;;;;;12.80;99.90;;;;;;5043297;28;20267;-90
2022/11/02 11:09:30;;;;;;;;;;;12.70;99.90;;;;;;5029428;28;20034;-89
2022/11/02 11:12:04;;;;;;;;;;;12.60;99.90;;;;;;5017638;28;19925;-90
2022/11/02 11:14:56;;;;;;;;;;;12.50;99.90;;;;;;5057812;28;19960;-88
2022/11/02 11:17:31;;;;;;;;;;;12.50;99.90;;;;;;5027246;28;19921;-89
2022/11/02 11:19:57;;;;;;;;;;;12.60;99.90;;;;;;5014655;28;19925;-89
2022/11/02 11:22:31;;;;;;;;;;;12.60;99.90;;;;;;5025028;28;19951;-88
2022/11/02 11:25:12;;;;;;;;;;;12.60;99.90;;;;;;5015532;28;19925;-88
2022/11/02 11:27:45;;;;;;;;;;;12.60;99.90;;;;;;5003233;28;19925;-90
2022/11/02 11:30:31;;;;;;;;;;;12.50;99.90;;;;;;5008257;28;19931;-91
2022/11/02 11:32:57;;;;;;;;;;;12.40;99.90;;;;;;5007199;28;19925;-88
2022/11/02 11:35:26;;;;;;;;;;;12.30;99.90;;;;;;5010125;28;19937;-89
2022/11/02 11:37:53;;;;;;;;;;;12.30;99.90;;;;;;5029316;28;19932;-89
2022/11/02 11:40:20;;;;;;;;;;;12.30;99.90;;;;;;5016882;28;19925;-90
2022/11/02 11:42:48;;;;;;;;;;;12.30;99.90;;;;;;5010177;28;19986;-90
2022/11/02 11:45:21;;;;;;;;;;;12.20;99.90;;;;;;5012938;28;19925;-91
2022/11/02 11:48:01;;;;;;;;;;;12.40;99.90;;;;;;5061664;28;19933;-90
2022/11/02 11:50:26;;;;;;;;;;;12.60;99.90;;;;;;5040387;28;19926;-89
2022/11/02 11:53:07;;;;;;;;;;;12.90;99.90;;;;;;5034742;28;20010;-92
2022/11/02 11:55:33;;;;;;;;;;;13.00;99.90;;;;;;5006314;28;19936;-91
2022/11/02 11:58:05;;;;;;;;;;;13.10;99.90;;;;;;5023948;28;19925;-92
2022/11/02 12:00:31;;;;;;;;;;;13.20;99.90;;;;;;5043723;28;19940;-90
2022/11/02 12:03:06;;;;;;;;;;;13.20;99.90;;;;;;5014525;28;19925;-89
2022/11/02 12:05:55;;;;;;;;;;;13.30;99.90;;;;;;5033896;28;19932;-89
2022/11/02 12:08:26;;;;;;;;;;;13.30;99.90;;;;;;5004826;28;19964;-89
2022/11/02 12:11:07;;;;;;;;;;;13.30;99.90;;;;;;5041633;28;19929;-89
2022/11/02 12:13:45;;;;;;;;;;;13.10;99.90;;;;;;5064075;28;19929;-89
2022/11/02 12:16:29;;;;;;;;;;;13.20;99.90;;;;;;5018378;28;19925;-89
2022/11/02 12:19:10;;;;;;;;;;;13.20;99.90;;;;;;5031575;28;19995;-91
2022/11/02 12:21:56;;;;;;;;;;;13.30;99.90;;;;;;5059251;28;21012;-89
2022/11/02 12:24:40;;;;;;;;;;;13.40;99.90;;;;;;5020141;28;19930;-89
2022/11/02 12:27:06;;;;;;;;;;;13.50;99.90;;;;;;5046108;28;19925;-90
2022/11/02 12:29:52;;;;;;;;;;;13.60;99.90;;;;;;5030734;28;20018;-90
2022/11/02 12:32:36;;;;;;;;;;;13.70;99.90;;;;;;5035505;28;20023;-91
2022/11/02 12:35:18;;;;;;;;;;;13.80;99.90;;;;;;5029110;28;19951;-89
2022/11/02 12:37:44;;;;;;;;;;;13.80;99.90;;;;;;5025898;28;19926;-90
2022/11/02 12:40:26;;;;;;;;;;;13.80;99.90;;;;;;5046790;28;19960;-92
2022/11/02 12:42:54;;;;;;;;;;;13.80;99.90;;;;;;5020272;28;19925;-90
2022/11/02 12:45:29;;;;;;;;;;;13.80;99.90;;;;;;5027254;28;19932;-92
2022/11/02 12:48:02;;;;;;;;;;;13.80;99.90;;;;;;5033255;28;19925;-90
2022/11/02 12:50:46;;;;;;;;;;;13.60;99.90;;;;;;5010606;28;19936;-89
2022/11/02 12:53:35;;;;;;;;;;;13.50;99.90;;;;;;5024257;28;19988;-89
2022/11/02 12:56:02;;;;;;;;;;;13.30;99.90;;;;;;5027540;28;19925;-90
2022/11/02 12:58:29;;;;;;;;;;;13.10;99.90;;;;;;5028817;28;19952;-92
2022/11/02 13:00:59;;;;;;;;;;;13.00;99.90;;;;;;5031820;28;19925;-91
2022/11/02 13:03:34;;;;;;;;;;;12.90;99.90;;;;;;5033555;28;19925;-91
2022/11/02 13:06:05;;;;;;;;;;;12.90;99.90;;;;;;5028906;28;20292;-90
2022/11/02 13:08:39;;;;;;;;;;;12.90;99.90;;;;;;5045360;28;19925;-92
2022/11/02 13:11:08;;;;;;;;;;;12.90;99.90;;;;;;5022270;28;19932;-90
2022/11/02 13:13:53;;;;;;;;;;;13.00;99.90;;;;;;5029188;28;19936;-90
2022/11/02 13:16:32;;;;;;;;;;;13.10;99.90;;;;;;5056557;28;20396;-90
2022/11/02 13:18:59;;;;;;;;;;;13.40;99.90;;;;;;5043427;28;20369;-92
2022/11/02 13:21:31;;;;;;;;;;;13.60;99.90;;;;;;5041460;28;19936;-90
2022/11/02 13:23:58;;;;;;;;;;;13.80;99.90;;;;;;5008694;28;19932;-91
2022/11/02 13:26:29;;;;;;;;;;;13.90;99.90;;;;;;5026871;28;19925;-90
2022/11/02 13:28:59;;;;;;;;;;;13.90;99.90;;;;;;5013430;28;19925;-90
2022/11/02 13:31:34;;;;;;;;;;;14.00;99.90;;;;;;5049563;28;19948;-90
2022/11/02 13:34:01;;;;;;;;;;;13.90;99.90;;;;;;5072863;28;19944;-90
2022/11/02 13:36:27;;;;;;;;;;;13.80;99.90;;;;;;5023650;28;19925;-90
2022/11/02 13:39:05;;;;;;;;;;;13.70;99.90;;;;;;5005964;28;19960;-92
2022/11/02 13:41:34;;;;;;;;;;;13.70;99.90;;;;;;5008804;28;19971;-93
2022/11/02 13:44:15;;;;;;;;;;;13.70;99.90;;;;;;5027097;28;19952;-91
2022/11/02 13:46:56;;;;;;;;;;;13.70;99.90;;;;;;5025836;28;20374;-91
2022/11/02 13:49:38;;;;;;;;;;;13.70;99.90;;;;;;5025628;28;19987;-91
2022/11/02 13:52:10;;;;;;;;;;;13.50;99.90;;;;;;5059022;28;20397;-90
2022/11/02 13:54:39;;;;;;;;;;;13.40;99.90;;;;;;5009672;28;20252;-90
2022/11/02 13:57:05;;;;;;;;;;;13.30;99.90;;;;;;5030929;28;19964;-91
2022/11/02 13:59:32;;;;;;;;;;;14.10;99.90;;;;;;5005913;28;19932;-90
2022/11/02 14:01:59;;;;;;;;;;;13.10;99.90;;;;;;5054590;28;19925;-91
2022/11/02 14:04:25;;;;;;;;;;;13.00;99.90;;;;;;5041880;28;19936;-90
2022/11/02 14:06:58;;;;;;;;;;;13.00;99.90;;;;;;5041401;28;20014;-90
2022/11/02 14:09:29;;;;;;;;;;;12.90;99.90;;;;;;5007601;28;20009;-92
2022/11/02 14:12:10;;;;;;;;;;;12.90;99.90;;;;;;5025072;28;19988;-89
2022/11/02 14:14:36;;;;;;;;;;;13.10;99.90;;;;;;5010045;28;20292;-90
2022/11/02 14:17:19;;;;;;;;;;;13.20;99.90;;;;;;5005734;28;19957;-91
2022/11/02 14:19:45;;;;;;;;;;;13.30;99.90;;;;;;5024480;28;19940;-89
2022/11/02 14:22:12;;;;;;;;;;;13.40;99.90;;;;;;5011345;28;19932;-90
2022/11/02 14:24:38;;;;;;;;;;;13.40;99.90;;;;;;5023558;28;19925;-90
2022/11/02 14:27:04;;;;;;;;;;;13.30;99.90;;;;;;5032938;28;20343;-90
2022/11/02 14:29:44;;;;;;;;;;;13.30;99.90;;;;;;5027600;28;19980;-90
2022/11/02 14:32:16;;;;;;;;;;;13.20;99.90;;;;;;5027771;28;20290;-91
2022/11/02 14:34:48;;;;;;;;;;;13.20;99.90;;;;;;5027373;28;19933;-90
2022/11/02 14:37:32;;;;;;;;;;;13.20;99.90;;;;;;5040794;28;20020;-90
2022/11/02 14:40:04;;;;;;;;;;;13.20;99.90;;;;;;5024848;28;20281;-91
2022/11/02 14:42:33;;;;;;;;;;;13.20;99.90;;;;;;5021594;28;19932;-90
2022/11/02 14:45:05;;;;;;;;;;;13.10;99.90;;;;;;5070974;28;19932;-89
2022/11/02 14:47:32;;;;;;;;;;;13.00;99.90;;;;;;5030786;28;19932;-90
2022/11/02 14:50:01;;;;;;;;;;;12.80;99.90;;;;;;5049232;28;19925;-88
2022/11/02 14:52:28;;;;;;;;;;;12.70;99.90;;;;;;5022944;28;19925;-93
2022/11/02 14:55:05;;;;;;;;;;;12.60;99.90;;;;;;5004052;28;19961;-91
2022/11/02 14:57:35;;;;;;;;;;;12.60;99.90;;;;;;5006282;28;20020;-91
2022/11/02 15:00:02;;;;;;;;;;;12.40;99.90;;;;;;5024954;28;20000;-90
2022/11/02 15:02:33;;;;;;;;;;;12.40;99.90;;;;;;5022696;28;19976;-93